sensor_id;sensor_type;location;lat;lon;timestamp;pressure;altitude;pressure_sealevel;temperature;humidity
35435;BME280;21556;55.782;37.528;2023-04-25T00:00:22;99511.19;;;16.80;40.86
35435;BME280;21556;55.782;37.528;2023-04-25T00:02:50;99503.38;;;16.68;41.33
35435;BME280;21556;55.782;37.528;2023-04-25T00:05:17;99510.63;;;16.51;42.22
35435;BME280;21556;55.782;37.528;2023-04-25T00:07:46;99518.88;;;16.20;42.91
35435;BME280;21556;55.782;37.528;2023-04-25T00:10:16;99513.56;;;16.22;43.26
35435;BME280;21556;55.782;37.528;2023-04-25T00:12:42;99507.19;;;16.41;43.26
35435;BME280;21556;55.782;37.528;2023-04-25T00:15:08;99513.31;;;16.49;43.03
35435;BME280;21556;55.782;37.528;2023-04-25T00:17:36;99515.00;;;16.56;42.72
35435;BME280;21556;55.782;37.528;2023-04-25T00:20:04;99515.91;;;16.52;42.86
35435;BME280;21556;55.782;37.528;2023-04-25T00:22:32;99515.94;;;16.49;43.36
35435;BME280;21556;55.782;37.528;2023-04-25T00:24:59;99510.84;;;16.31;44.11
35435;BME280;21556;55.782;37.528;2023-04-25T00:27:26;99510.44;;;16.66;42.84
35435;BME280;21556;55.782;37.528;2023-04-25T00:29:52;99517.59;;;16.59;43.29
35435;BME280;21556;55.782;37.528;2023-04-25T00:32:18;99521.25;;;16.49;43.78
35435;BME280;21556;55.782;37.528;2023-04-25T00:34:44;99522.00;;;16.60;43.50
35435;BME280;21556;55.782;37.528;2023-04-25T00:37:13;99526.94;;;16.03;45.10
35435;BME280;21556;55.782;37.528;2023-04-25T00:39:42;99522.31;;;16.31;45.13
35435;BME280;21556;55.782;37.528;2023-04-25T00:42:09;99523.19;;;16.32;44.81
35435;BME280;21556;55.782;37.528;2023-04-25T00:44:37;99519.81;;;16.11;46.31
35435;BME280;21556;55.782;37.528;2023-04-25T00:47:06;99514.25;;;16.41;45.83
35435;BME280;21556;55.782;37.528;2023-04-25T00:49:34;99519.56;;;16.42;45.23
35435;BME280;21556;55.782;37.528;2023-04-25T00:52:00;99511.56;;;16.44;45.18
35435;BME280;21556;55.782;37.528;2023-04-25T00:54:26;99511.56;;;16.45;45.25
35435;BME280;21556;55.782;37.528;2023-04-25T00:56:53;99517.84;;;16.35;45.79
35435;BME280;21556;55.782;37.528;2023-04-25T00:59:20;99513.16;;;16.63;44.71
35435;BME280;21556;55.782;37.528;2023-04-25T01:01:46;99514.13;;;16.51;45.50
35435;BME280;21556;55.782;37.528;2023-04-25T01:04:13;99501.75;;;16.55;45.32
35435;BME280;21556;55.782;37.528;2023-04-25T01:06:39;99497.56;;;16.35;46.31
35435;BME280;21556;55.782;37.528;2023-04-25T01:09:05;99498.91;;;16.72;43.99
35435;BME280;21556;55.782;37.528;2023-04-25T01:11:32;99493.91;;;16.44;45.15
35435;BME280;21556;55.782;37.528;2023-04-25T01:13:59;99501.84;;;16.47;45.50
35435;BME280;21556;55.782;37.528;2023-04-25T01:16:25;99502.47;;;16.71;45.05
35435;BME280;21556;55.782;37.528;2023-04-25T01:18:52;99508.66;;;16.71;44.76
35435;BME280;21556;55.782;37.528;2023-04-25T01:21:18;99499.75;;;16.78;44.46
35435;BME280;21556;55.782;37.528;2023-04-25T01:23:46;99499.06;;;16.59;45.29
35435;BME280;21556;55.782;37.528;2023-04-25T01:26:12;99505.09;;;16.74;44.87
35435;BME280;21556;55.782;37.528;2023-04-25T01:28:39;99507.16;;;16.44;46.70
35435;BME280;21556;55.782;37.528;2023-04-25T01:31:07;99501.88;;;16.46;46.93
35435;BME280;21556;55.782;37.528;2023-04-25T01:33:38;99501.16;;;16.25;48.25
35435;BME280;21556;55.782;37.528;2023-04-25T01:36:05;99498.34;;;16.44;48.00
35435;BME280;21556;55.782;37.528;2023-04-25T01:38:34;99494.84;;;16.40;48.40
35435;BME280;21556;55.782;37.528;2023-04-25T01:41:00;99491.25;;;16.49;48.18
35435;BME280;21556;55.782;37.528;2023-04-25T01:43:27;99485.16;;;16.39;48.94
35435;BME280;21556;55.782;37.528;2023-04-25T01:45:53;99489.06;;;15.97;51.32
35435;BME280;21556;55.782;37.528;2023-04-25T01:48:19;99488.13;;;16.07;51.88
35435;BME280;21556;55.782;37.528;2023-04-25T01:50:47;99493.50;;;15.96;53.69
35435;BME280;21556;55.782;37.528;2023-04-25T01:53:13;99487.09;;;16.23;50.91
35435;BME280;21556;55.782;37.528;2023-04-25T01:55:42;99495.19;;;16.06;52.85
35435;BME280;21556;55.782;37.528;2023-04-25T01:58:13;99492.94;;;16.54;49.97
35435;BME280;21556;55.782;37.528;2023-04-25T02:01:05;99491.03;;;16.66;49.31
35435;BME280;21556;55.782;37.528;2023-04-25T02:03:39;99483.56;;;16.21;51.35
35435;BME280;21556;55.782;37.528;2023-04-25T02:06:09;99483.44;;;16.35;50.80
35435;BME280;21556;55.782;37.528;2023-04-25T02:08:39;99488.50;;;16.55;50.27
35435;BME280;21556;55.782;37.528;2023-04-25T02:11:05;99478.66;;;16.68;49.49
35435;BME280;21556;55.782;37.528;2023-04-25T02:13:40;99481.75;;;16.26;51.82
35435;BME280;21556;55.782;37.528;2023-04-25T02:16:29;99472.09;;;16.21;52.74
35435;BME280;21556;55.782;37.528;2023-04-25T02:18:56;99475.72;;;16.10;53.63
35435;BME280;21556;55.782;37.528;2023-04-25T02:21:22;99476.25;;;16.46;51.77
35435;BME280;21556;55.782;37.528;2023-04-25T02:23:49;99473.97;;;16.11;53.34
35435;BME280;21556;55.782;37.528;2023-04-25T02:26:17;99472.28;;;16.02;55.21
35435;BME280;21556;55.782;37.528;2023-04-25T02:28:43;99475.09;;;15.84;57.21
35435;BME280;21556;55.782;37.528;2023-04-25T02:31:10;99473.81;;;16.28;54.71
35435;BME280;21556;55.782;37.528;2023-04-25T02:33:37;99474.31;;;16.64;51.57
35435;BME280;21556;55.782;37.528;2023-04-25T02:36:05;99469.84;;;16.67;51.96
35435;BME280;21556;55.782;37.528;2023-04-25T02:38:31;99475.06;;;16.73;51.02
35435;BME280;21556;55.782;37.528;2023-04-25T02:40:59;99477.84;;;16.61;51.91
35435;BME280;21556;55.782;37.528;2023-04-25T02:43:26;99477.09;;;16.48;52.21
35435;BME280;21556;55.782;37.528;2023-04-25T02:45:53;99477.59;;;16.86;50.78
35435;BME280;21556;55.782;37.528;2023-04-25T02:48:23;99477.75;;;16.69;51.78
35435;BME280;21556;55.782;37.528;2023-04-25T02:50:50;99478.69;;;16.65;52.14
35435;BME280;21556;55.782;37.528;2023-04-25T02:53:16;99483.75;;;16.88;50.86
35435;BME280;21556;55.782;37.528;2023-04-25T02:55:47;99481.63;;;17.16;49.27
35435;BME280;21556;55.782;37.528;2023-04-25T02:58:13;99481.53;;;17.20;48.73
35435;BME280;21556;55.782;37.528;2023-04-25T03:00:46;99481.59;;;17.17;48.94
35435;BME280;21556;55.782;37.528;2023-04-25T03:03:13;99489.28;;;16.65;51.97
35435;BME280;21556;55.782;37.528;2023-04-25T03:05:39;99483.97;;;16.68;51.69
35435;BME280;21556;55.782;37.528;2023-04-25T03:08:05;99478.00;;;16.49;54.10
35435;BME280;21556;55.782;37.528;2023-04-25T03:10:33;99465.06;;;16.20;56.45
35435;BME280;21556;55.782;37.528;2023-04-25T03:13:03;99466.66;;;16.36;55.95
35435;BME280;21556;55.782;37.528;2023-04-25T03:15:29;99463.28;;;16.19;58.00
35435;BME280;21556;55.782;37.528;2023-04-25T03:17:55;99460.38;;;16.46;58.02
35435;BME280;21556;55.782;37.528;2023-04-25T03:20:23;99459.53;;;16.43;56.42
35435;BME280;21556;55.782;37.528;2023-04-25T03:22:49;99468.03;;;16.69;55.27
35435;BME280;21556;55.782;37.528;2023-04-25T03:25:17;99468.97;;;16.65;55.86
35435;BME280;21556;55.782;37.528;2023-04-25T03:27:45;99467.09;;;16.76;54.63
35435;BME280;21556;55.782;37.528;2023-04-25T03:30:13;99471.38;;;16.90;52.57
35435;BME280;21556;55.782;37.528;2023-04-25T03:32:41;99483.47;;;17.09;51.56
35435;BME280;21556;55.782;37.528;2023-04-25T03:35:08;99489.28;;;16.65;53.11
35435;BME280;21556;55.782;37.528;2023-04-25T03:37:34;99485.84;;;16.58;55.20
35435;BME280;21556;55.782;37.528;2023-04-25T03:40:03;99493.44;;;16.90;53.18
35435;BME280;21556;55.782;37.528;2023-04-25T03:42:49;99487.19;;;16.94;53.20
35435;BME280;21556;55.782;37.528;2023-04-25T03:45:16;99488.41;;;16.64;54.93
35435;BME280;21556;55.782;37.528;2023-04-25T03:47:42;99481.13;;;16.84;53.43
35435;BME280;21556;55.782;37.528;2023-04-25T03:50:08;99481.00;;;16.97;52.71
35435;BME280;21556;55.782;37.528;2023-04-25T03:52:36;99486.03;;;17.15;51.88
35435;BME280;21556;55.782;37.528;2023-04-25T03:55:02;99474.50;;;17.19;51.38
35435;BME280;21556;55.782;37.528;2023-04-25T03:57:31;99479.00;;;17.14;52.12
35435;BME280;21556;55.782;37.528;2023-04-25T03:59:58;99485.47;;;16.90;53.78
35435;BME280;21556;55.782;37.528;2023-04-25T04:02:24;99481.78;;;17.03;53.28
35435;BME280;21556;55.782;37.528;2023-04-25T04:04:52;99478.53;;;16.80;54.04
35435;BME280;21556;55.782;37.528;2023-04-25T04:07:19;99479.19;;;16.99;53.48
35435;BME280;21556;55.782;37.528;2023-04-25T04:09:48;99465.91;;;17.02;53.04
35435;BME280;21556;55.782;37.528;2023-04-25T04:12:24;99476.59;;;16.94;53.70
35435;BME280;21556;55.782;37.528;2023-04-25T04:14:51;99487.47;;;16.68;55.30
35435;BME280;21556;55.782;37.528;2023-04-25T04:17:18;99473.09;;;16.91;54.78
35435;BME280;21556;55.782;37.528;2023-04-25T04:19:44;99479.97;;;17.07;54.83
35435;BME280;21556;55.782;37.528;2023-04-25T04:22:17;99478.34;;;16.97;56.03
35435;BME280;21556;55.782;37.528;2023-04-25T04:24:46;99482.56;;;17.12;54.51
35435;BME280;21556;55.782;37.528;2023-04-25T04:27:19;99479.50;;;16.70;57.43
35435;BME280;21556;55.782;37.528;2023-04-25T04:29:56;99482.88;;;16.87;58.51
35435;BME280;21556;55.782;37.528;2023-04-25T04:32:33;99475.50;;;17.09;56.12
35435;BME280;21556;55.782;37.528;2023-04-25T04:35:00;99480.84;;;17.06;57.83
35435;BME280;21556;55.782;37.528;2023-04-25T04:37:29;99474.19;;;16.73;60.91
35435;BME280;21556;55.782;37.528;2023-04-25T04:39:57;99481.19;;;16.80;60.62
35435;BME280;21556;55.782;37.528;2023-04-25T04:42:34;99482.16;;;16.74;62.38
35435;BME280;21556;55.782;37.528;2023-04-25T04:45:10;99486.38;;;16.88;62.39
35435;BME280;21556;55.782;37.528;2023-04-25T04:47:46;99481.03;;;16.94;62.33
35435;BME280;21556;55.782;37.528;2023-04-25T04:50:33;99483.81;;;16.83;62.56
35435;BME280;21556;55.782;37.528;2023-04-25T04:53:21;99488.38;;;16.67;64.10
35435;BME280;21556;55.782;37.528;2023-04-25T04:55:49;99485.56;;;16.86;63.47
35435;BME280;21556;55.782;37.528;2023-04-25T04:58:36;99477.81;;;16.63;66.75
35435;BME280;21556;55.782;37.528;2023-04-25T05:01:20;99477.31;;;16.31;70.41
35435;BME280;21556;55.782;37.528;2023-04-25T05:04:13;99473.28;;;16.77;67.77
35435;BME280;21556;55.782;37.528;2023-04-25T05:07:18;99474.22;;;16.70;69.36
35435;BME280;21556;55.782;37.528;2023-04-25T05:09:53;99479.47;;;16.76;68.14
35435;BME280;21556;55.782;37.528;2023-04-25T05:12:34;99482.09;;;16.79;67.67
35435;BME280;21556;55.782;37.528;2023-04-25T05:15:14;99478.66;;;16.68;68.75
35435;BME280;21556;55.782;37.528;2023-04-25T05:17:53;99470.47;;;16.91;67.42
35435;BME280;21556;55.782;37.528;2023-04-25T05:20:46;99470.50;;;16.88;66.92
35435;BME280;21556;55.782;37.528;2023-04-25T05:23:35;99481.22;;;16.77;68.21
35435;BME280;21556;55.782;37.528;2023-04-25T05:26:13;99470.56;;;16.83;68.95
35435;BME280;21556;55.782;37.528;2023-04-25T05:29:18;99476.56;;;16.97;67.74
35435;BME280;21556;55.782;37.528;2023-04-25T05:32:03;99469.56;;;17.55;62.86
35435;BME280;21556;55.782;37.528;2023-04-25T05:34:31;99463.09;;;17.73;60.87
35435;BME280;21556;55.782;37.528;2023-04-25T05:37:04;99465.97;;;18.12;57.67
35435;BME280;21556;55.782;37.528;2023-04-25T05:39:32;99468.09;;;18.41;56.57
35435;BME280;21556;55.782;37.528;2023-04-25T05:42:25;99468.44;;;18.24;53.37
35435;BME280;21556;55.782;37.528;2023-04-25T05:45:10;99460.78;;;18.53;52.96
35435;BME280;21556;55.782;37.528;2023-04-25T05:47:49;99461.69;;;18.52;52.47
35435;BME280;21556;55.782;37.528;2023-04-25T05:50:32;99462.59;;;18.51;53.46
35435;BME280;21556;55.782;37.528;2023-04-25T05:53:18;99455.38;;;18.58;52.97
35435;BME280;21556;55.782;37.528;2023-04-25T05:55:59;99445.91;;;18.90;51.53
35435;BME280;21556;55.782;37.528;2023-04-25T05:58:32;99443.53;;;19.16;50.54
35435;BME280;21556;55.782;37.528;2023-04-25T06:01:12;99451.47;;;19.19;49.35
35435;BME280;21556;55.782;37.528;2023-04-25T06:03:41;99449.44;;;19.69;47.25
35435;BME280;21556;55.782;37.528;2023-04-25T06:06:10;99447.94;;;19.56;48.13
35435;BME280;21556;55.782;37.528;2023-04-25T06:08:37;99439.59;;;19.34;48.08
35435;BME280;21556;55.782;37.528;2023-04-25T06:11:05;99439.22;;;19.49;46.81
35435;BME280;21556;55.782;37.528;2023-04-25T06:13:31;99429.47;;;19.87;45.90
35435;BME280;21556;55.782;37.528;2023-04-25T06:15:58;99429.81;;;20.08;45.71
35435;BME280;21556;55.782;37.528;2023-04-25T06:18:26;99429.72;;;20.11;44.54
35435;BME280;21556;55.782;37.528;2023-04-25T06:20:52;99432.75;;;20.31;43.08
35435;BME280;21556;55.782;37.528;2023-04-25T06:23:19;99418.72;;;20.25;42.40
35435;BME280;21556;55.782;37.528;2023-04-25T06:26:03;99413.03;;;20.04;42.03
35435;BME280;21556;55.782;37.528;2023-04-25T06:28:31;99418.47;;;20.34;42.35
35435;BME280;21556;55.782;37.528;2023-04-25T06:30:59;99409.00;;;20.55;41.04
35435;BME280;21556;55.782;37.528;2023-04-25T06:33:26;99409.94;;;20.54;40.81
35435;BME280;21556;55.782;37.528;2023-04-25T06:35:54;99389.16;;;20.95;39.51
35435;BME280;21556;55.782;37.528;2023-04-25T06:38:25;99402.81;;;20.84;39.96
35435;BME280;21556;55.782;37.528;2023-04-25T06:40:52;99404.69;;;20.51;39.05
35435;BME280;21556;55.782;37.528;2023-04-25T06:43:19;99392.44;;;21.87;37.00
35435;BME280;21556;55.782;37.528;2023-04-25T06:45:54;99389.75;;;22.39;35.44
35435;BME280;21556;55.782;37.528;2023-04-25T06:48:23;99381.25;;;23.21;33.60
35435;BME280;21556;55.782;37.528;2023-04-25T06:50:53;99391.13;;;23.41;32.81
35435;BME280;21556;55.782;37.528;2023-04-25T06:53:21;99396.78;;;22.65;33.39
35435;BME280;21556;55.782;37.528;2023-04-25T06:55:56;99391.97;;;24.08;30.98
35435;BME280;21556;55.782;37.528;2023-04-25T06:58:26;99382.53;;;23.55;30.59
35435;BME280;21556;55.782;37.528;2023-04-25T07:01:15;99379.16;;;24.74;29.27
35435;BME280;21556;55.782;37.528;2023-04-25T07:03:42;99389.41;;;24.45;29.90
35435;BME280;21556;55.782;37.528;2023-04-25T07:06:14;99377.31;;;25.14;28.83
35435;BME280;21556;55.782;37.528;2023-04-25T07:08:41;99380.31;;;24.87;28.50
35435;BME280;21556;55.782;37.528;2023-04-25T07:11:07;99371.25;;;24.90;28.42
35435;BME280;21556;55.782;37.528;2023-04-25T07:13:33;99374.44;;;26.24;27.00
35435;BME280;21556;55.782;37.528;2023-04-25T07:15:59;99362.63;;;26.93;26.01
35435;BME280;21556;55.782;37.528;2023-04-25T07:18:28;99360.06;;;27.23;25.70
35435;BME280;21556;55.782;37.528;2023-04-25T07:20:54;99359.25;;;26.89;25.63
35435;BME280;21556;55.782;37.528;2023-04-25T07:23:21;99366.56;;;25.86;27.37
35435;BME280;21556;55.782;37.528;2023-04-25T07:25:47;99362.72;;;26.92;26.60
35435;BME280;21556;55.782;37.528;2023-04-25T07:28:19;99357.63;;;27.19;26.41
35435;BME280;21556;55.782;37.528;2023-04-25T07:30:46;99348.22;;;27.88;24.83
35435;BME280;21556;55.782;37.528;2023-04-25T07:33:13;99350.25;;;27.22;26.36
35435;BME280;21556;55.782;37.528;2023-04-25T07:35:40;99351.53;;;27.47;25.64
35435;BME280;21556;55.782;37.528;2023-04-25T07:38:06;99343.78;;;28.31;24.50
35435;BME280;21556;55.782;37.528;2023-04-25T07:40:34;99352.47;;;27.92;25.53
35435;BME280;21556;55.782;37.528;2023-04-25T07:43:08;99362.84;;;26.57;26.93
35435;BME280;21556;55.782;37.528;2023-04-25T07:45:44;99361.66;;;26.45;26.50
35435;BME280;21556;55.782;37.528;2023-04-25T07:48:10;99347.44;;;27.40;25.09
35435;BME280;21556;55.782;37.528;2023-04-25T07:50:38;99354.13;;;27.01;25.44
35435;BME280;21556;55.782;37.528;2023-04-25T07:53:04;99358.94;;;27.89;24.69
35435;BME280;21556;55.782;37.528;2023-04-25T07:55:37;99357.34;;;27.85;24.99
35435;BME280;21556;55.782;37.528;2023-04-25T07:58:11;99342.47;;;28.52;24.68
35435;BME280;21556;55.782;37.528;2023-04-25T08:00:39;99357.19;;;27.88;25.18
35435;BME280;21556;55.782;37.528;2023-04-25T08:03:25;99352.25;;;28.11;24.78
35435;BME280;21556;55.782;37.528;2023-04-25T08:05:53;99357.78;;;27.93;24.83
35435;BME280;21556;55.782;37.528;2023-04-25T08:08:19;99354.69;;;27.99;24.60
35435;BME280;21556;55.782;37.528;2023-04-25T08:10:45;99353.44;;;27.45;25.71
35435;BME280;21556;55.782;37.528;2023-04-25T08:13:15;99364.34;;;25.41;28.82
35435;BME280;21556;55.782;37.528;2023-04-25T08:15:48;99366.69;;;25.30;28.51
35435;BME280;21556;55.782;37.528;2023-04-25T08:18:14;99377.28;;;24.16;30.52
35435;BME280;21556;55.782;37.528;2023-04-25T08:20:42;99382.97;;;23.00;32.17
35435;BME280;21556;55.782;37.528;2023-04-25T08:23:12;99391.88;;;23.23;32.58
35435;BME280;21556;55.782;37.528;2023-04-25T08:26:02;99392.44;;;23.09;33.42
35435;BME280;21556;55.782;37.528;2023-04-25T08:28:34;99386.66;;;23.20;33.41
35435;BME280;21556;55.782;37.528;2023-04-25T08:31:01;99380.59;;;22.93;33.69
35435;BME280;21556;55.782;37.528;2023-04-25T08:33:34;99387.78;;;23.14;33.31
35435;BME280;21556;55.782;37.528;2023-04-25T08:36:21;99383.47;;;22.40;34.39
35435;BME280;21556;55.782;37.528;2023-04-25T08:38:47;99389.06;;;22.80;33.85
35435;BME280;21556;55.782;37.528;2023-04-25T08:41:17;99381.91;;;24.13;32.39
35435;BME280;21556;55.782;37.528;2023-04-25T08:43:48;99356.38;;;25.39;30.46
35435;BME280;21556;55.782;37.528;2023-04-25T08:46:17;99351.03;;;26.26;28.90
35435;BME280;21556;55.782;37.528;2023-04-25T08:49:00;99358.56;;;24.35;30.81
35435;BME280;21556;55.782;37.528;2023-04-25T08:51:31;99361.84;;;23.81;31.62
35435;BME280;21556;55.782;37.528;2023-04-25T08:54:11;99351.47;;;24.92;30.34
35435;BME280;21556;55.782;37.528;2023-04-25T08:56:48;99348.16;;;25.42;29.79
35435;BME280;21556;55.782;37.528;2023-04-25T08:59:14;99338.84;;;25.50;29.79
35435;BME280;21556;55.782;37.528;2023-04-25T09:01:44;99352.78;;;25.92;27.64
35435;BME280;21556;55.782;37.528;2023-04-25T09:04:12;99340.25;;;25.74;27.80
35435;BME280;21556;55.782;37.528;2023-04-25T09:06:41;99322.44;;;26.41;27.27
35435;BME280;21556;55.782;37.528;2023-04-25T09:09:09;99333.81;;;25.96;27.58
35435;BME280;21556;55.782;37.528;2023-04-25T09:11:37;99327.16;;;25.14;28.24
35435;BME280;21556;55.782;37.528;2023-04-25T09:14:21;99325.81;;;25.59;28.41
35435;BME280;21556;55.782;37.528;2023-04-25T09:17:09;99323.31;;;26.08;27.24
35435;BME280;21556;55.782;37.528;2023-04-25T09:19:45;99317.84;;;25.58;27.26
35435;BME280;21556;55.782;37.528;2023-04-25T09:22:23;99317.53;;;25.64;26.78
35435;BME280;21556;55.782;37.528;2023-04-25T09:24:50;99303.84;;;25.68;26.44
35435;BME280;21556;55.782;37.528;2023-04-25T09:27:21;99319.22;;;25.30;26.92
35435;BME280;21556;55.782;37.528;2023-04-25T09:29:58;99321.69;;;24.01;27.97
35435;BME280;21556;55.782;37.528;2023-04-25T09:32:32;99310.00;;;24.81;27.09
35435;BME280;21556;55.782;37.528;2023-04-25T09:34:58;99313.31;;;24.09;27.72
35435;BME280;21556;55.782;37.528;2023-04-25T09:37:30;99319.41;;;24.12;28.43
35435;BME280;21556;55.782;37.528;2023-04-25T09:40:07;99310.91;;;24.80;27.78
35435;BME280;21556;55.782;37.528;2023-04-25T09:42:49;99317.91;;;23.64;29.71
35435;BME280;21556;55.782;37.528;2023-04-25T09:45:16;99322.38;;;24.64;28.90
35435;BME280;21556;55.782;37.528;2023-04-25T09:47:55;99317.78;;;24.08;29.47
35435;BME280;21556;55.782;37.528;2023-04-25T09:50:31;99314.28;;;24.85;28.75
35435;BME280;21556;55.782;37.528;2023-04-25T09:53:34;99322.38;;;25.02;29.06
35435;BME280;21556;55.782;37.528;2023-04-25T09:56:16;99308.25;;;25.52;28.08
35435;BME280;21556;55.782;37.528;2023-04-25T09:58:49;99305.44;;;25.55;27.73
35435;BME280;21556;55.782;37.528;2023-04-25T10:01:20;99303.06;;;24.94;28.32
35435;BME280;21556;55.782;37.528;2023-04-25T10:04:19;99316.53;;;25.30;27.97
35435;BME280;21556;55.782;37.528;2023-04-25T10:06:53;99289.78;;;25.63;27.16
35435;BME280;21556;55.782;37.528;2023-04-25T10:09:24;99294.22;;;25.64;27.76
35435;BME280;21556;55.782;37.528;2023-04-25T10:11:56;99281.50;;;25.51;26.68
35435;BME280;21556;55.782;37.528;2023-04-25T10:14:23;99296.63;;;25.34;27.20
35435;BME280;21556;55.782;37.528;2023-04-25T10:16:53;99288.19;;;24.69;27.97
35435;BME280;21556;55.782;37.528;2023-04-25T10:19:21;99286.38;;;24.51;28.72
35435;BME280;21556;55.782;37.528;2023-04-25T10:21:52;99280.63;;;24.40;29.18
35435;BME280;21556;55.782;37.528;2023-04-25T10:24:30;99284.94;;;24.63;28.96
35435;BME280;21556;55.782;37.528;2023-04-25T10:27:01;99276.16;;;24.59;29.09
35435;BME280;21556;55.782;37.528;2023-04-25T10:29:27;99263.56;;;25.16;28.37
35435;BME280;21556;55.782;37.528;2023-04-25T10:31:55;99271.38;;;25.56;28.32
35435;BME280;21556;55.782;37.528;2023-04-25T10:34:44;99267.56;;;26.12;27.41
35435;BME280;21556;55.782;37.528;2023-04-25T10:37:18;99256.78;;;25.61;27.59
35435;BME280;21556;55.782;37.528;2023-04-25T10:39:45;99269.41;;;25.25;28.51
35435;BME280;21556;55.782;37.528;2023-04-25T10:42:15;99259.22;;;24.76;28.79
35435;BME280;21556;55.782;37.528;2023-04-25T10:45:02;99260.09;;;24.95;28.58
35435;BME280;21556;55.782;37.528;2023-04-25T10:47:36;99248.50;;;24.38;29.07
35435;BME280;21556;55.782;37.528;2023-04-25T10:50:07;99246.84;;;24.55;28.49
35435;BME280;21556;55.782;37.528;2023-04-25T10:52:34;99247.97;;;24.69;28.37
35435;BME280;21556;55.782;37.528;2023-04-25T10:55:04;99239.28;;;24.25;28.65
35435;BME280;21556;55.782;37.528;2023-04-25T10:57:42;99234.88;;;24.05;28.61
35435;BME280;21556;55.782;37.528;2023-04-25T11:00:13;99245.59;;;23.44;28.60
35435;BME280;21556;55.782;37.528;2023-04-25T11:05:32;99238.59;;;23.82;27.86
35435;BME280;21556;55.782;37.528;2023-04-25T11:08:02;99243.41;;;23.53;28.59
35435;BME280;21556;55.782;37.528;2023-04-25T11:10:35;99234.41;;;23.14;28.87
35435;BME280;21556;55.782;37.528;2023-04-25T11:13:02;99246.91;;;23.13;29.13
35435;BME280;21556;55.782;37.528;2023-04-25T11:15:28;99231.28;;;23.24;28.84
35435;BME280;21556;55.782;37.528;2023-04-25T11:17:55;99226.41;;;22.90;29.26
35435;BME280;21556;55.782;37.528;2023-04-25T11:20:24;99224.31;;;22.76;28.71
35435;BME280;21556;55.782;37.528;2023-04-25T11:22:52;99213.34;;;23.06;28.57
35435;BME280;21556;55.782;37.528;2023-04-25T11:25:20;99222.31;;;23.25;27.95
35435;BME280;21556;55.782;37.528;2023-04-25T11:27:55;99226.69;;;22.84;28.69
35435;BME280;21556;55.782;37.528;2023-04-25T11:30:23;99209.28;;;22.74;28.95
35435;BME280;21556;55.782;37.528;2023-04-25T11:32:52;99203.22;;;23.13;28.48
35435;BME280;21556;55.782;37.528;2023-04-25T11:35:19;99198.28;;;22.59;30.11
35435;BME280;21556;55.782;37.528;2023-04-25T11:37:47;99210.00;;;23.21;29.08
35435;BME280;21556;55.782;37.528;2023-04-25T11:40:13;99216.91;;;22.83;29.95
35435;BME280;21556;55.782;37.528;2023-04-25T11:42:46;99208.88;;;22.83;30.21
35435;BME280;21556;55.782;37.528;2023-04-25T11:45:13;99196.22;;;23.10;30.00
35435;BME280;21556;55.782;37.528;2023-04-25T11:47:40;99208.75;;;22.86;30.70
35435;BME280;21556;55.782;37.528;2023-04-25T11:50:10;99203.75;;;23.00;30.88
35435;BME280;21556;55.782;37.528;2023-04-25T11:52:47;99198.28;;;23.03;30.31
35435;BME280;21556;55.782;37.528;2023-04-25T11:55:19;99185.03;;;22.34;31.11
35435;BME280;21556;55.782;37.528;2023-04-25T11:57:49;99186.13;;;22.51;31.36
35435;BME280;21556;55.782;37.528;2023-04-25T12:00:21;99176.38;;;22.94;31.00
35435;BME280;21556;55.782;37.528;2023-04-25T12:02:54;99180.94;;;22.70;30.95
35435;BME280;21556;55.782;37.528;2023-04-25T12:05:26;99172.72;;;22.30;30.44
35435;BME280;21556;55.782;37.528;2023-04-25T12:07:57;99178.34;;;22.89;30.97
35435;BME280;21556;55.782;37.528;2023-04-25T12:10:25;99170.84;;;22.32;31.05
35435;BME280;21556;55.782;37.528;2023-04-25T12:12:52;99175.75;;;22.65;31.14
35435;BME280;21556;55.782;37.528;2023-04-25T12:15:25;99169.28;;;22.71;31.33
35435;BME280;21556;55.782;37.528;2023-04-25T12:17:53;99165.34;;;22.59;31.77
35435;BME280;21556;55.782;37.528;2023-04-25T12:20:21;99170.28;;;21.77;32.79
35435;BME280;21556;55.782;37.528;2023-04-25T12:22:50;99157.97;;;22.20;33.05
35435;BME280;21556;55.782;37.528;2023-04-25T12:28:24;99148.97;;;22.45;32.25
35435;BME280;21556;55.782;37.528;2023-04-25T12:31:01;99149.88;;;21.75;33.62
35435;BME280;21556;55.782;37.528;2023-04-25T12:33:29;99151.91;;;21.45;34.15
35435;BME280;21556;55.782;37.528;2023-04-25T12:36:00;99129.97;;;22.07;33.27
35435;BME280;21556;55.782;37.528;2023-04-25T12:38:34;99132.00;;;22.00;33.36
35435;BME280;21556;55.782;37.528;2023-04-25T12:41:01;99135.41;;;22.04;33.49
35435;BME280;21556;55.782;37.528;2023-04-25T12:43:28;99123.69;;;22.31;32.67
35435;BME280;21556;55.782;37.528;2023-04-25T12:45:55;99130.03;;;22.05;33.58
35435;BME280;21556;55.782;37.528;2023-04-25T12:48:23;99120.81;;;22.14;33.69
35435;BME280;21556;55.782;37.528;2023-04-25T12:50:51;99124.63;;;22.30;33.14
35435;BME280;21556;55.782;37.528;2023-04-25T12:53:22;99120.06;;;21.87;33.84
35435;BME280;21556;55.782;37.528;2023-04-25T12:55:54;99109.44;;;21.85;33.78
35435;BME280;21556;55.782;37.528;2023-04-25T12:58:26;99114.41;;;22.18;33.28
35435;BME280;21556;55.782;37.528;2023-04-25T13:00:57;99095.00;;;21.91;33.52
35435;BME280;21556;55.782;37.528;2023-04-25T13:03:22;99107.69;;;21.84;33.19
35435;BME280;21556;55.782;37.528;2023-04-25T13:05:49;99091.31;;;21.72;33.74
35435;BME280;21556;55.782;37.528;2023-04-25T13:08:18;99094.00;;;21.70;34.03
35435;BME280;21556;55.782;37.528;2023-04-25T13:10:44;99089.50;;;21.72;33.88
35435;BME280;21556;55.782;37.528;2023-04-25T13:13:11;99077.34;;;21.63;34.06
35435;BME280;21556;55.782;37.528;2023-04-25T13:15:38;99072.78;;;22.13;33.71